Time;durP1;ratioP1;P1;durP2;ratioP2;P2;SDS_P1;SDS_P2;PMS_P1;PMS_P2;Temp;Humidity;BMP_temperature;BMP_pressure;BME280_temperature;BME280_humidity;BME280_pressure;Samples;Min_cycle;Max_cycle;Signal;HPM_P1;HPM_P2
2022/03/09 00:01:17;;;;;;;28.40;17.63;;;;;;;-1.38;73.68;102194.63;4935794;29;20099;-72
2022/03/09 00:03:43;;;;;;;29.23;17.58;;;;;;;-1.37;73.86;102196.34;4950317;28;20354;-73
2022/03/09 00:06:08;;;;;;;27.92;16.45;;;;;;;-1.38;73.02;102202.22;4935502;29;20114;-74
2022/03/09 00:08:33;;;;;;;26.05;16.52;;;;;;;-1.38;72.89;102202.22;4935465;29;20027;-73
2022/03/09 00:10:59;;;;;;;30.17;17.17;;;;;;;-1.38;72.94;102207.31;4935470;29;20028;-72
2022/03/09 00:13:24;;;;;;;26.90;16.40;;;;;;;-1.38;73.09;102209.84;4935522;29;20028;-74
2022/03/09 00:15:50;;;;;;;25.23;16.85;;;;;;;-1.46;73.18;102202.19;4935405;29;20469;-72
2022/03/09 00:18:15;;;;;;;26.88;16.30;;;;;;;-1.59;73.68;102191.06;4935229;29;20024;-73
2022/03/09 00:20:40;;;;;;;29.63;16.60;;;;;;;-1.70;73.87;102169.88;4935412;29;20397;-73
2022/03/09 00:23:06;;;;;;;31.75;17.42;;;;;;;-1.53;73.44;102208.88;4935478;29;20055;-72
2022/03/09 00:25:31;;;;;;;27.58;15.52;;;;;;;-1.46;72.62;102217.38;4935666;29;20102;-72
2022/03/09 00:27:57;;;;;;;28.10;16.17;;;;;;;-1.48;73.38;102212.28;4935423;29;20482;-72
2022/03/09 00:30:23;;;;;;;26.63;15.90;;;;;;;-1.52;74.17;102207.19;4935323;29;20051;-73
2022/03/09 00:32:48;;;;;;;25.90;14.27;;;;;;;-1.58;73.83;102202.06;4937647;29;20086;-75
2022/03/09 00:35:13;;;;;;;24.98;14.43;;;;;;;-1.51;72.72;102211.41;4954021;28;20044;-76
2022/03/09 00:37:39;;;;;;;27.60;16.40;;;;;;;-1.63;72.65;102189.38;4953569;28;20401;-71
2022/03/09 00:40:05;;;;;;;26.92;15.38;;;;;;;-1.51;73.20;102209.72;4939160;29;20043;-72
2022/03/09 00:42:36;;;;;;;22.92;14.55;;;;;;;-1.51;73.36;102214.78;4939475;29;20027;-73
2022/03/09 00:45:03;;;;;;;24.85;14.63;;;;;;;-1.51;73.30;102209.72;4939132;29;20051;-75
2022/03/09 00:47:28;;;;;;;24.83;15.02;;;;;;;-1.53;73.98;102205.50;4939116;29;20500;-72
2022/03/09 00:49:53;;;;;;;29.08;14.85;;;;;;;-1.54;73.49;102207.19;4939083;29;20038;-73
2022/03/09 00:52:18;;;;;;;21.88;13.70;;;;;;;-1.56;73.33;102197.88;4938957;29;20028;-73
2022/03/09 00:54:44;;;;;;;24.20;14.93;;;;;;;-1.73;73.64;102180.00;4939079;29;20063;-73
2022/03/09 00:57:09;;;;;;;26.23;13.07;;;;;;;-1.70;72.97;102185.06;4939001;29;20039;-73
2022/03/09 00:59:34;;;;;;;21.85;13.52;;;;;;;-1.55;73.19;102208.03;4939103;29;20115;-72
2022/03/09 01:02:00;;;;;;;24.00;13.93;;;;;;;-1.71;72.57;102175.78;4938868;29;20059;-75
2022/03/09 01:04:25;;;;;;;23.77;13.80;;;;;;;-1.55;72.74;102205.50;4938697;29;20103;-72
2022/03/09 01:06:50;;;;;;;20.50;12.95;;;;;;;-1.61;72.67;102196.97;4938553;29;20160;-74
2022/03/09 01:09:16;;;;;;;24.42;13.02;;;;;;;-1.64;73.05;102205.41;4938922;29;20027;-73
2022/03/09 01:11:41;;;;;;;24.20;13.55;;;;;;;-1.65;73.26;102205.41;4938866;29;20039;-72
2022/03/09 01:14:06;;;;;;;21.92;12.88;;;;;;;-1.71;74.02;102202.78;4938721;29;20059;-75
2022/03/09 01:16:32;;;;;;;23.92;13.55;;;;;;;-1.68;74.12;102211.25;4938489;29;20031;-73
2022/03/09 01:18:57;;;;;;;25.05;13.90;;;;;;;-1.88;74.21;102184.88;4938673;29;20086;-74
2022/03/09 01:21:23;;;;;;;24.40;13.75;;;;;;;-1.77;74.74;102206.97;4938337;29;20031;-73
2022/03/09 01:23:48;;;;;;;22.52;13.55;;;;;;;-1.85;74.42;102197.59;4938685;29;20060;-72
2022/03/09 01:26:13;;;;;;;28.10;14.77;;;;;;;-1.84;74.54;102209.44;4938478;29;20040;-73
2022/03/09 01:28:39;;;;;;;22.48;13.77;;;;;;;-1.91;74.70;102202.59;4938383;29;20053;-73
2022/03/09 01:31:04;;;;;;;23.02;13.82;;;;;;;-1.91;75.01;102210.19;4938288;29;20031;-72
2022/03/09 01:33:30;;;;;;;24.20;12.95;;;;;;;-1.87;73.89;102209.38;4952652;29;20200;-75
2022/03/09 01:35:55;;;;;;;22.98;13.80;;;;;;;-2.02;74.99;102194.88;4938181;29;20066;-73
2022/03/09 01:38:21;;;;;;;22.13;13.10;;;;;;;-1.95;75.43;102208.47;4937990;29;20039;-76
2022/03/09 01:40:47;;;;;;;26.17;15.15;;;;;;;-2.01;75.55;102201.66;4938234;29;20074;-75
2022/03/09 01:43:14;;;;;;;24.20;14.25;;;;;;;-2.33;74.93;102143.09;4937444;29;20056;-73
2022/03/09 01:45:39;;;;;;;27.27;14.10;;;;;;;-1.95;74.65;102201.72;4937707;29;20027;-73
2022/03/09 01:48:05;;;;;;;24.30;14.07;;;;;;;-2.08;75.04;102188.06;4952684;29;20493;-73
2022/03/09 01:50:30;;;;;;;25.80;14.00;;;;;;;-2.14;75.01;102185.47;4938127;29;20038;-73
2022/03/09 01:52:55;;;;;;;28.20;14.27;;;;;;;-2.13;74.89;102186.34;4937817;29;20389;-73
2022/03/09 01:55:21;;;;;;;24.42;14.02;;;;;;;-2.06;75.27;102198.22;4937981;29;20075;-75
2022/03/09 01:57:46;;;;;;;21.55;13.38;;;;;;;-2.29;75.45;102166.75;4937841;29;20038;-75
2022/03/09 02:00:12;;;;;;;24.27;13.48;;;;;;;-2.13;76.07;102194.78;4952497;29;20024;-79
2022/03/09 02:02:37;;;;;;;25.23;13.32;;;;;;;-2.16;75.73;102189.69;4937774;29;20024;-80
2022/03/09 02:05:03;;;;;;;22.65;13.75;;;;;;;-2.32;75.60;102159.97;4937777;29;20031;-81
2022/03/09 02:10:17;;;;;;;26.60;14.15;;;;;;;-2.37;75.80;102162.44;4937989;29;20487;-80
2022/03/09 02:12:43;;;;;;;23.40;13.68;;;;;;;-2.19;75.35;102198.91;4937741;29;20031;-80
2022/03/09 02:15:08;;;;;;;24.23;13.40;;;;;;;-2.43;76.02;102161.53;4937421;29;20027;-81
2022/03/09 02:17:34;;;;;;;23.92;13.60;;;;;;;-2.23;76.01;102199.72;4937503;29;20560;-77
2022/03/09 02:19:59;;;;;;;24.42;13.60;;;;;;;-2.28;76.32;102194.59;4937678;29;20086;-79
2022/03/09 02:22:39;;;;;;;22.40;13.23;;;;;;;-2.28;76.42;102197.09;4937332;29;20059;-80
2022/03/09 02:25:15;;;;;;;27.77;14.27;;;;;;;-2.27;75.52;102203.88;4937569;29;20035;-72
2022/03/09 02:27:43;;;;;;;24.38;14.07;;;;;;;-2.43;75.56;102179.25;4937175;29;20090;-78
2022/03/09 02:30:15;;;;;;;24.45;14.30;;;;;;;-2.35;76.61;102195.38;4937322;29;20055;-80
2022/03/09 02:32:42;;;;;;;25.77;14.75;;;;;;;-2.36;76.29;102196.16;4937681;29;20035;-78
2022/03/09 02:35:12;;;;;;;24.95;15.20;;;;;;;-2.42;76.58;102183.47;4937297;29;20054;-81
2022/03/09 02:37:38;;;;;;;22.95;13.95;;;;;;;-2.59;76.65;102157.94;4936888;29;20036;-81
2022/03/09 02:40:09;;;;;;;25.75;14.40;;;;;;;-2.40;76.54;102182.63;4937023;29;20050;-79
2022/03/09 02:42:35;;;;;;;23.83;14.32;;;;;;;-2.41;76.44;102180.94;4937016;29;20358;-82
2022/03/09 02:45:00;;;;;;;24.27;13.93;;;;;;;-2.45;75.82;102163.19;4937088;29;20043;-79
2022/03/09 02:47:26;;;;;;;24.52;14.82;;;;;;;-2.43;77.00;102169.13;4951717;29;20027;-77
2022/03/09 02:49:51;;;;;;;26.05;15.38;;;;;;;-2.49;76.52;102177.47;4937017;29;20095;-81
2022/03/09 02:52:16;;;;;;;25.73;14.30;;;;;;;-2.69;76.78;102149.41;4936925;29;20374;-77
2022/03/09 02:54:42;;;;;;;23.27;13.57;;;;;;;-2.58;77.66;102169.75;4936675;29;20102;-79
2022/03/09 02:57:07;;;;;;;22.63;13.30;;;;;;;-2.61;77.87;102169.72;4936671;29;20055;-82
2022/03/09 02:59:33;;;;;;;23.58;13.52;;;;;;;-2.77;77.18;102145.06;4936787;29;20106;-78
2022/03/09 03:01:58;;;;;;;25.08;14.25;;;;;;;-2.66;77.14;102169.66;4936968;29;20027;-78
2022/03/09 03:04:24;;;;;;;27.08;14.68;;;;;;;-2.77;77.20;102153.50;4936898;29;20031;-72
2022/03/09 03:06:49;;;;;;;26.13;14.43;;;;;;;-2.65;77.29;102173.91;4936658;29;20519;-73
2022/03/09 03:09:15;;;;;;;23.02;13.45;;;;;;;-2.67;77.61;102173.03;4936325;29;20032;-76
2022/03/09 03:11:40;;;;;;;25.90;14.50;;;;;;;-2.75;77.20;102156.94;4919307;29;20166;-82
2022/03/09 03:14:05;;;;;;;28.25;14.35;;;;;;;-2.65;76.81;102173.91;4936478;29;20051;-74
2022/03/09 03:16:31;;;;;;;26.15;14.68;;;;;;;-2.74;77.07;102160.31;4936506;29;20114;-73
2022/03/09 03:18:56;;;;;;;26.52;14.68;;;;;;;-2.70;77.98;102170.47;4936581;29;20034;-73
2022/03/09 03:21:21;;;;;;;26.42;14.13;;;;;;;-2.75;77.89;102173.75;4936735;29;20028;-73
2022/03/09 03:23:47;;;;;;;27.38;15.27;;;;;;;-2.80;78.66;102176.22;4936130;29;20032;-73
2022/03/09 03:26:12;;;;;;;31.58;14.65;;;;;;;-3.06;77.95;102129.50;4951057;29;20039;-76
2022/03/09 03:28:37;;;;;;;23.58;14.52;;;;;;;-2.80;77.92;102177.91;4936384;29;20078;-82
2022/03/09 03:31:04;;;;;;;27.42;14.45;;;;;;;-2.88;78.35;102170.22;4936181;29;20051;-80
2022/03/09 03:33:30;;;;;;;26.48;14.45;;;;;;;-2.92;78.48;102161.75;4936323;29;20032;-75
2022/03/09 03:35:55;;;;;;;26.30;14.82;;;;;;;-2.87;78.57;102174.44;4936194;29;20028;-74
2022/03/09 03:38:21;;;;;;;28.40;14.57;;;;;;;-2.89;78.53;102176.09;4935820;29;20047;-80
2022/03/09 03:40:46;;;;;;;25.58;15.23;;;;;;;-2.93;78.88;102177.75;4936033;29;20461;-75
2022/03/09 03:43:12;;;;;;;25.80;13.95;;;;;;;-2.91;78.76;102173.56;4936097;29;20031;-80
2022/03/09 03:45:37;;;;;;;26.52;14.95;;;;;;;-2.97;78.70;102163.34;4935868;29;20028;-78
2022/03/09 03:48:03;;;;;;;27.77;14.65;;;;;;;-2.86;78.60;102168.53;4935897;29;20031;-75
2022/03/09 03:50:28;;;;;;;24.20;14.57;;;;;;;-2.90;78.10;102161.75;4936202;29;20381;-73
2022/03/09 03:52:53;;;;;;;27.50;14.65;;;;;;;-2.84;77.45;102171.97;4935881;29;20028;-72
2022/03/09 03:55:19;;;;;;;29.38;14.73;;;;;;;-2.79;76.79;102172.88;4935945;29;20023;-73
2022/03/09 03:57:44;;;;;;;23.67;13.68;;;;;;;-2.76;77.31;102160.25;4935818;29;20067;-73
2022/03/09 04:00:11;;;;;;;27.13;14.00;;;;;;;-2.82;76.96;102160.19;4935741;29;20115;-73
2022/03/09 04:02:36;;;;;;;26.08;14.25;;;;;;;-2.79;76.46;102161.91;4935532;29;20027;-74
2022/03/09 04:05:02;;;;;;;25.58;14.70;;;;;;;-2.77;77.27;102166.16;4936260;29;20083;-73
2022/03/09 04:07:28;;;;;;;26.23;14.32;;;;;;;-2.77;77.30;102166.16;4934964;29;20104;-73
2022/03/09 04:09:54;;;;;;;27.67;14.35;;;;;;;-2.88;76.24;102157.56;4935546;29;20028;-72
2022/03/09 04:12:19;;;;;;;24.50;13.82;;;;;;;-3.06;76.48;102137.94;4935585;29;20027;-73
2022/03/09 04:14:45;;;;;;;28.92;15.07;;;;;;;-2.81;76.10;102178.75;4935601;29;20094;-73
2022/03/09 04:17:10;;;;;;;25.38;14.30;;;;;;;-2.82;76.82;102177.88;4935477;29;20039;-74
2022/03/09 04:19:35;;;;;;;26.13;13.95;;;;;;;-3.10;77.78;102138.75;4935873;29;20106;-79
2022/03/09 04:22:01;;;;;;;24.83;13.27;;;;;;;-3.08;77.11;102146.34;4935826;29;20042;-82
2022/03/09 04:24:26;;;;;;;25.15;14.43;;;;;;;-3.07;78.10;102161.50;4950067;29;20051;-82
2022/03/09 04:26:52;;;;;;;26.88;15.07;;;;;;;-3.17;78.64;102152.94;4935432;29;20083;-81
2022/03/09 04:29:17;;;;;;;30.15;14.95;;;;;;;-3.07;78.61;102169.09;4935516;29;20028;-79
2022/03/09 04:31:42;;;;;;;27.50;14.32;;;;;;;-3.10;78.20;102169.06;4935374;29;20070;-77
2022/03/09 04:34:08;;;;;;;27.88;15.35;;;;;;;-3.24;78.00;102142.75;4935160;29;20111;-73
2022/03/09 04:36:33;;;;;;;26.70;14.40;;;;;;;-3.26;78.09;102142.72;4935384;29;20143;-73
2022/03/09 04:38:59;;;;;;;26.13;14.73;;;;;;;-3.27;78.48;102145.22;4935006;29;20520;-73
2022/03/09 04:41:24;;;;;;;26.98;14.82;;;;;;;-3.15;79.25;102164.75;4935345;29;20432;-84
2022/03/09 04:43:50;;;;;;;25.58;14.15;;;;;;;-3.18;79.17;102163.03;4935489;29;20520;-83
2022/03/09 04:46:16;;;;;;;25.67;14.50;;;;;;;-3.22;78.93;102174.78;4935323;29;20027;-76
2022/03/09 04:48:42;;;;;;;26.35;15.25;;;;;;;-3.26;78.79;102170.50;4935041;29;20091;-83
2022/03/09 04:51:08;;;;;;;28.50;15.82;;;;;;;-3.26;78.86;102174.69;4935196;29;20047;-82
2022/03/09 04:53:33;;;;;;;29.42;15.23;;;;;;;-3.41;78.51;102157.66;4935367;29;20028;-84
2022/03/09 04:55:58;;;;;;;27.50;14.73;;;;;;;-3.60;79.12;102130.41;4935105;29;20432;-74
2022/03/09 04:58:24;;;;;;;31.42;15.02;;;;;;;-3.45;79.53;102155.88;4935112;29;20384;-74
2022/03/09 05:00:50;;;;;;;24.80;14.15;;;;;;;-3.47;79.88;102155.88;4935246;29;20023;-73
2022/03/09 05:03:15;;;;;;;28.15;15.35;;;;;;;-3.44;80.70;102164.31;4949630;29;20092;-73
2022/03/09 05:05:41;;;;;;;30.27;15.82;;;;;;;-3.64;80.44;102133.69;4935022;29;20809;-73
2022/03/09 05:08:06;;;;;;;29.98;15.40;;;;;;;-3.48;80.19;102169.31;4935176;29;20087;-73
2022/03/09 05:10:31;;;;;;;32.65;16.20;;;;;;;-3.62;81.08;102155.63;4934983;29;20436;-76
2022/03/09 05:12:57;;;;;;;30.27;14.65;;;;;;;-3.49;80.72;102171.81;4934970;29;20477;-75
2022/03/09 05:15:22;;;;;;;26.98;15.32;;;;;;;-3.68;80.77;102139.53;4934910;29;20038;-73
2022/03/09 05:17:47;;;;;;;25.73;14.00;;;;;;;-3.54;80.45;102155.72;4935343;29;20071;-74
2022/03/09 05:20:15;;;;;;;26.83;15.13;;;;;;;-3.54;81.25;102163.31;4938427;29;20479;-74
2022/03/09 05:22:41;;;;;;;26.70;15.18;;;;;;;-3.68;81.27;102147.09;4938904;29;20028;-74
2022/03/09 05:25:07;;;;;;;25.25;15.40;;;;;;;-3.54;79.96;102166.72;4953174;29;20050;-74
2022/03/09 05:27:32;;;;;;;27.83;14.65;;;;;;;-3.68;79.97;102144.56;4938458;29;20031;-73
2022/03/09 05:29:58;;;;;;;27.73;15.35;;;;;;;-3.55;80.10;102169.19;4938326;29;20378;-74
2022/03/09 05:32:23;;;;;;;27.08;15.02;;;;;;;-3.50;80.02;102172.66;4938479;29;20363;-74
2022/03/09 05:34:50;;;;;;;29.98;16.35;;;;;;;-3.55;79.67;102164.13;4938219;29;20035;-73
2022/03/09 05:37:16;;;;;;;25.58;15.18;;;;;;;-3.50;80.78;102181.06;4938249;29;20035;-74
2022/03/09 05:39:41;;;;;;;30.63;15.02;;;;;;;-3.53;80.74;102185.22;4938066;29;20047;-74
2022/03/09 05:42:07;;;;;;;28.40;15.60;;;;;;;-3.56;80.76;102187.69;4938372;29;20044;-76
2022/03/09 05:44:32;;;;;;;29.00;14.98;;;;;;;-3.55;80.66;102186.84;4938038;29;20034;-74
2022/03/09 05:46:58;;;;;;;27.35;15.57;;;;;;;-3.59;80.22;102183.44;4938284;29;20043;-74
2022/03/09 05:49:23;;;;;;;26.50;16.33;;;;;;;-3.56;79.73;102187.69;4938021;29;20036;-73
2022/03/09 05:51:49;;;;;;;29.40;15.30;;;;;;;-3.55;80.50;102192.75;4937930;29;20449;-73
2022/03/09 05:54:15;;;;;;;30.50;15.63;;;;;;;-3.54;80.17;102193.59;4937944;29;20024;-73
2022/03/09 05:56:41;;;;;;;30.77;16.23;;;;;;;-3.61;80.09;102184.25;4952506;28;20385;-75
2022/03/09 05:59:07;;;;;;;28.38;15.70;;;;;;;-3.66;79.53;102175.72;4938039;29;20421;-73
2022/03/09 06:01:32;;;;;;;30.25;16.73;;;;;;;-3.47;78.97;102208.88;4937939;29;20019;-74
2022/03/09 06:03:57;;;;;;;30.90;17.27;;;;;;;-3.56;79.31;102195.25;4937876;29;20059;-73
2022/03/09 06:06:23;;;;;;;31.90;17.13;;;;;;;-3.46;79.00;102209.75;4937784;29;20075;-73
2022/03/09 06:08:48;;;;;;;31.55;16.30;;;;;;;-3.44;78.75;102213.16;4937615;29;20461;-76
2022/03/09 06:11:13;;;;;;;25.33;15.15;;;;;;;-3.71;78.80;102168.09;4937551;29;20028;-73
2022/03/09 06:13:39;;;;;;;30.33;16.98;;;;;;;-3.46;79.82;102207.22;4937494;29;20015;-73
2022/03/09 06:16:04;;;;;;;31.58;16.38;;;;;;;-3.49;79.46;102213.06;4937652;29;20035;-73
2022/03/09 06:18:30;;;;;;;30.13;17.00;;;;;;;-3.58;79.76;102189.34;4937503;29;20020;-73
2022/03/09 06:20:55;;;;;;;29.23;16.77;;;;;;;-3.35;79.62;102215.81;4937508;29;20032;-77
2022/03/09 06:23:21;;;;;;;30.60;15.38;;;;;;;-3.41;79.55;102209.84;4937262;29;20158;-74
2022/03/09 06:25:46;;;;;;;29.75;16.58;;;;;;;-3.29;79.21;102230.22;4937209;29;20156;-74
2022/03/09 06:28:11;;;;;;;37.33;15.32;;;;;;;-3.33;79.37;102216.72;4937129;29;20122;-74
2022/03/09 06:30:37;;;;;;;27.38;15.98;;;;;;;-3.25;79.47;102217.66;4936827;29;20031;-74
2022/03/09 06:33:02;;;;;;;29.40;15.43;;;;;;;-3.25;79.41;102220.19;4937209;29;20030;-75
2022/03/09 06:35:28;;;;;;;30.67;16.48;;;;;;;-3.30;79.49;102208.31;4937236;29;20034;-73
2022/03/09 06:37:53;;;;;;;35.38;15.18;;;;;;;-3.22;79.16;102214.34;4937034;29;20500;-76
2022/03/09 06:40:19;;;;;;;29.83;16.80;;;;;;;-3.14;78.63;102222.91;4936730;29;20048;-74
2022/03/09 06:42:44;;;;;;;30.85;16.55;;;;;;;-2.99;78.18;102230.72;4937146;29;20481;-74
2022/03/09 06:45:09;;;;;;;30.90;15.65;;;;;;;-3.19;77.55;102186.59;4937577;29;20075;-75
2022/03/09 06:47:38;;;;;;;32.65;16.33;;;;;;;-2.83;77.67;102230.97;4937010;29;20118;-73
2022/03/09 06:50:05;;;;;;;28.83;15.63;;;;;;;-2.70;78.34;102248.84;4937004;29;20032;-74
2022/03/09 06:52:30;;;;;;;32.38;17.02;;;;;;;-2.75;78.17;102230.25;4936774;29;20432;-71
2022/03/09 06:54:55;;;;;;;30.02;16.85;;;;;;;-2.93;78.50;102197.97;4951182;29;20110;-73
2022/03/09 06:57:21;;;;;;;33.72;17.67;;;;;;;-2.52;77.48;102252.47;4936594;29;20024;-74
2022/03/09 06:59:46;;;;;;;33.70;17.38;;;;;;;-2.53;77.40;102243.19;4936737;29;20032;-73
2022/03/09 07:02:12;;;;;;;35.72;20.33;;;;;;;-2.37;76.93;102260.25;4936982;29;20027;-76
2022/03/09 07:04:37;;;;;;;36.42;18.95;;;;;;;-2.26;76.94;102250.25;4936879;29;20038;-73
2022/03/09 07:07:02;;;;;;;34.50;19.48;;;;;;;-2.13;75.70;102263.09;4936654;29;20032;-74
2022/03/09 07:09:28;;;;;;;37.75;18.00;;;;;;;-2.01;75.56;102259.84;4936336;29;20051;-76
2022/03/09 07:11:53;;;;;;;31.65;16.88;;;;;;;-1.92;74.66;102264.19;4936459;29;20095;-78
2022/03/09 07:14:19;;;;;;;34.80;17.35;;;;;;;-1.81;75.16;102268.53;4936533;29;20540;-76
2022/03/09 07:16:44;;;;;;;32.10;16.88;;;;;;;-1.90;75.08;102235.50;4936342;29;20112;-77
2022/03/09 07:19:09;;;;;;;37.08;17.45;;;;;;;-1.59;74.84;102277.19;4936368;29;20024;-75
2022/03/09 07:21:35;;;;;;;31.48;15.60;;;;;;;-1.57;74.94;102259.50;4936333;29;20032;-77
2022/03/09 07:24:00;;;;;;;28.88;15.80;;;;;;;-1.39;73.77;102274.00;4935932;29;20075;-73
2022/03/09 07:26:25;;;;;;;28.08;14.55;;;;;;;-1.25;73.63;102275.84;4936160;29;20039;-73
2022/03/09 07:28:51;;;;;;;26.52;14.20;;;;;;;-1.31;72.89;102242.84;4936308;29;20094;-73
2022/03/09 07:31:16;;;;;;;36.35;15.43;;;;;;;-1.01;72.51;102271.81;4936068;29;20028;-76
2022/03/09 07:33:41;;;;;;;26.38;14.88;;;;;;;-1.07;71.97;102247.28;4936271;29;20028;-74
2022/03/09 07:36:07;;;;;;;30.20;14.77;;;;;;;-0.84;70.51;102255.03;4936092;29;20099;-74
2022/03/09 07:38:32;;;;;;;26.80;14.48;;;;;;;-0.72;70.46;102249.19;4935894;29;20054;-75
2022/03/09 07:40:58;;;;;;;25.55;14.15;;;;;;;-0.68;70.41;102244.19;4950073;29;20071;-74
2022/03/09 07:43:23;;;;;;;26.35;13.57;;;;;;;-0.48;70.11;102262.06;4935704;29;20024;-76
2022/03/09 07:45:49;;;;;;;26.17;14.02;;;;;;;-0.51;69.35;102239.19;4935839;29;20066;-74
2022/03/09 07:48:14;;;;;;;35.50;17.10;;;;;;;-0.24;68.51;102256.25;4936031;29;20028;-72
2022/03/09 07:50:40;;;;;;;36.60;19.23;;;;;;;-0.23;68.37;102244.41;4935900;29;20030;-85
2022/03/09 07:53:07;;;;;;;34.00;17.20;;;;;;;-0.01;68.45;102257.16;4936137;29;20028;-90
2022/03/09 07:55:32;;;;;;;28.55;14.57;;;;;;;0.07;67.29;102256.34;4935906;29;20035;-88
2022/03/09 07:57:58;;;;;;;26.58;14.05;;;;;;;0.22;66.78;102264.88;4935643;29;20036;-87
2022/03/09 08:00:23;;;;;;;28.05;14.00;;;;;;;0.25;66.67;102264.03;4935740;29;20054;-89
2022/03/09 08:02:48;;;;;;;25.48;13.93;;;;;;;0.36;66.20;102256.44;4936308;29;20024;-83
2022/03/09 08:05:14;;;;;;;25.42;14.63;;;;;;;0.46;66.00;102266.63;4938087;29;20051;-85
2022/03/09 08:07:40;;;;;;;24.63;13.48;;;;;;;0.47;65.67;102249.69;4936742;29;20103;-87
2022/03/09 08:10:06;;;;;;;25.77;13.88;;;;;;;0.66;65.24;102276.81;4935594;29;20078;-86
2022/03/09 08:12:31;;;;;;;23.05;14.27;;;;;;;0.60;65.08;102248.88;4935371;29;20041;-80
2022/03/09 08:14:56;;;;;;;24.15;14.23;;;;;;;0.81;64.76;102281.09;4950061;29;20047;-84
2022/03/09 08:17:22;;;;;;;23.35;14.05;;;;;;;0.83;64.73;102270.06;4935876;29;20564;-82
2022/03/09 08:19:47;;;;;;;25.58;13.10;;;;;;;1.01;64.94;102276.00;4935582;29;20145;-85
2022/03/09 08:22:13;;;;;;;21.67;12.82;;;;;;;1.07;64.56;102274.28;4935689;29;20047;-89
2022/03/09 08:24:38;;;;;;;23.90;13.27;;;;;;;1.26;63.71;102287.84;4935666;29;20024;-83
2022/03/09 08:27:04;;;;;;;21.85;14.00;;;;;;;1.36;63.56;102284.44;4934448;29;20500;-78
2022/03/09 08:29:30;;;;;;;23.50;13.77;;;;;;;1.43;63.36;102277.63;4934933;29;20075;-75
2022/03/09 08:31:56;;;;;;;24.00;13.52;;;;;;;1.49;62.74;102282.72;4935411;29;20385;-71
2022/03/09 08:34:21;;;;;;;22.38;13.80;;;;;;;1.58;62.83;102289.50;4935893;29;20032;-82
2022/03/09 08:36:47;;;;;;;22.58;14.02;;;;;;;1.66;62.70;102283.50;4935303;29;20032;-81
2022/03/09 08:39:12;;;;;;;23.55;15.25;;;;;;;1.74;62.50;102288.59;4935163;29;20462;-81
2022/03/09 08:41:37;;;;;;;26.35;14.68;;;;;;;1.65;62.59;102250.44;4935166;29;20094;-82
2022/03/09 08:44:03;;;;;;;24.00;14.18;;;;;;;1.96;62.18;102289.34;4935227;29;20042;-86
2022/03/09 08:46:28;;;;;;;22.92;13.30;;;;;;;2.01;61.45;102282.56;4935286;29;20040;-74
2022/03/09 08:48:54;;;;;;;25.55;14.50;;;;;;;2.07;61.56;102281.69;4935487;29;20058;-76
2022/03/09 08:51:21;;;;;;;25.95;13.43;;;;;;;2.21;60.82;102290.13;4935270;29;20031;-82
2022/03/09 08:53:47;;;;;;;25.60;13.77;;;;;;;2.18;60.59;102274.84;4937318;29;20024;-82
2022/03/09 08:56:13;;;;;;;24.00;13.85;;;;;;;2.37;59.54;102296.84;4938833;29;20024;-77
2022/03/09 08:58:38;;;;;;;21.63;13.13;;;;;;;2.45;59.27;102284.03;4938918;29;20043;-75
2022/03/09 09:01:04;;;;;;;25.10;12.65;;;;;;;2.58;60.10;102299.25;4938803;29;20031;-80
2022/03/09 09:03:30;;;;;;;22.63;13.45;;;;;;;2.52;59.75;102272.94;4938868;29;20027;-78
2022/03/09 09:05:55;;;;;;;21.85;12.85;;;;;;;2.70;58.89;102284.72;4938794;29;20039;-83
2022/03/09 09:08:20;;;;;;;23.45;14.13;;;;;;;2.79;58.86;102284.66;4938767;29;20103;-78
2022/03/09 09:10:46;;;;;;;22.25;14.05;;;;;;;2.90;59.10;102282.03;4938894;29;20027;-76
2022/03/09 09:13:11;;;;;;;26.05;13.63;;;;;;;2.99;59.70;102289.59;4938569;29;20032;-74
2022/03/09 09:15:38;;;;;;;22.27;13.02;;;;;;;2.94;58.61;102263.28;4938512;29;20028;-74
2022/03/09 09:18:05;;;;;;;23.38;13.82;;;;;;;3.21;58.41;102286.00;4938691;29;20054;-85
2022/03/09 09:20:31;;;;;;;20.77;12.93;;;;;;;3.35;58.11;102275.69;4938749;29;20023;-71
2022/03/09 09:22:57;;;;;;;21.70;13.18;;;;;;;3.44;57.61;102284.09;4920950;29;20047;-78
2022/03/09 09:25:23;;;;;;;25.65;13.25;;;;;;;3.56;57.46;102283.13;4938506;29;20111;-81
2022/03/09 09:27:50;;;;;;;23.30;13.05;;;;;;;3.52;57.44;102263.56;4938426;29;20099;-78
2022/03/09 09:30:15;;;;;;;25.63;13.52;;;;;;;3.48;56.90;102253.41;4938091;29;20020;-76
2022/03/09 09:32:41;;;;;;;22.85;12.52;;;;;;;3.64;57.42;102258.34;4938475;29;20446;-87
2022/03/09 09:35:07;;;;;;;24.95;12.80;;;;;;;3.68;57.16;102252.31;4938655;29;20071;-84
2022/03/09 09:37:32;;;;;;;22.65;13.35;;;;;;;3.81;56.48;102260.69;4938232;29;20039;-86
2022/03/09 09:39:58;;;;;;;22.42;12.98;;;;;;;3.66;57.06;102233.63;4938134;29;20052;-84
2022/03/09 09:42:31;;;;;;;23.67;13.48;;;;;;;4.03;55.56;102272.34;4937902;29;20038;-84
2022/03/09 09:45:00;;;;;;;25.20;14.05;;;;;;;4.07;55.87;102270.59;4938132;29;20027;-87
2022/03/09 09:47:27;;;;;;;21.65;12.57;;;;;;;3.97;55.68;102246.03;4938311;29;20071;-76
2022/03/09 09:49:53;;;;;;;25.27;13.05;;;;;;;4.29;55.11;102272.00;4938582;29;20417;-80
2022/03/09 09:52:25;;;;;;;23.05;14.02;;;;;;;4.37;54.47;102276.16;4945759;28;20040;-79
2022/03/09 09:54:53;;;;;;;23.27;13.20;;;;;;;4.41;55.07;102270.13;4919643;29;20028;-80
2022/03/09 09:57:19;;;;;;;23.90;13.18;;;;;;;4.52;54.89;102274.25;4918926;29;20036;-79
2022/03/09 09:59:44;;;;;;;27.40;14.65;;;;;;;4.47;55.11;102235.09;4932968;29;20091;-75
2022/03/09 10:02:10;;;;;;;23.50;14.10;;;;;;;4.67;54.23;102249.28;4918990;29;20103;-83
2022/03/09 10:04:38;;;;;;;25.73;14.80;;;;;;;4.85;53.77;102272.03;4917944;29;20389;-76
2022/03/09 10:07:03;;;;;;;26.15;15.65;;;;;;;5.01;53.41;102273.44;4918892;29;20035;-88
2022/03/09 10:09:37;;;;;;;26.25;15.02;;;;;;;4.99;52.57;102252.16;4933121;29;20047;-80
2022/03/09 10:12:05;;;;;;;28.40;15.35;;;;;;;5.16;53.24;102280.03;4918281;29;20082;-75
2022/03/09 10:14:51;;;;;;;30.67;15.98;;;;;;;5.16;53.94;102254.44;4901432;29;20020;-76
2022/03/09 10:17:20;;;;;;;28.80;15.50;;;;;;;5.35;53.88;102273.72;4918106;29;20032;-76
2022/03/09 10:19:50;;;;;;;26.25;15.27;;;;;;;5.41;53.31;102265.94;4918487;29;20431;-77
2022/03/09 10:22:24;;;;;;;25.92;14.75;;;;;;;5.43;53.53;102268.47;4918467;29;20050;-77
2022/03/09 10:24:51;;;;;;;23.33;14.55;;;;;;;5.50;53.12;102259.78;4918330;29;20099;-75
2022/03/09 10:27:35;;;;;;;26.67;15.30;;;;;;;5.55;54.07;102257.97;4932863;29;20040;-77
2022/03/09 10:30:13;;;;;;;27.17;15.48;;;;;;;5.65;53.80;102263.78;4918315;29;20028;-80
2022/03/09 10:32:51;;;;;;;30.05;15.90;;;;;;;5.51;53.32;102224.78;4918549;29;20050;-80
2022/03/09 10:35:19;;;;;;;26.55;15.82;;;;;;;5.46;53.56;102212.88;4918226;29;20079;-80
2022/03/09 10:37:47;;;;;;;28.25;15.02;;;;;;;5.66;53.49;102220.16;4918298;29;20079;-84
2022/03/09 10:40:17;;;;;;;30.88;15.60;;;;;;;5.76;53.23;102220.81;4934070;29;20074;-80
2022/03/09 10:42:42;;;;;;;26.23;15.45;;;;;;;6.00;52.17;102246.00;4937168;29;20020;-80
2022/03/09 10:45:09;;;;;;;30.48;16.58;;;;;;;6.02;51.99;102235.69;4937246;29;20113;-76
2022/03/09 10:47:46;;;;;;;29.77;16.88;;;;;;;6.14;53.17;102239.72;4936728;29;20062;-81
2022/03/09 10:50:16;;;;;;;28.15;16.33;;;;;;;6.31;52.16;102255.59;4937306;29;20036;-79
2022/03/09 10:53:11;;;;;;;27.05;15.18;;;;;;;6.28;53.43;102259.03;4937108;29;20032;-79
2022/03/09 10:55:37;;;;;;;29.50;16.17;;;;;;;6.31;52.71;102242.75;4936281;29;20040;-76
2022/03/09 10:58:13;;;;;;;26.25;15.80;;;;;;;6.52;52.57;102260.22;4936584;29;20063;-75
2022/03/09 11:00:43;;;;;;;28.35;15.68;;;;;;;6.63;50.70;102254.84;4936759;29;20023;-74
2022/03/09 11:03:13;;;;;;;32.72;16.65;;;;;;;6.38;51.32;102204.97;4937033;29;20031;-74
2022/03/09 11:06:03;;;;;;;31.92;17.70;;;;;;;6.52;51.58;102208.06;4936955;29;20083;-74
2022/03/09 11:08:34;;;;;;;30.50;16.05;;;;;;;6.55;50.65;102200.28;4915501;29;20490;-74
2022/03/09 11:11:00;;;;;;;37.23;16.70;;;;;;;6.94;50.59;102254.94;4915356;29;20041;-76